Time;durP1;ratioP1;P1;durP2;ratioP2;P2;SDS_P1;SDS_P2;PMS_P1;PMS_P2;Temp;Humidity;BMP_temperature;BMP_pressure;BME280_temperature;BME280_humidity;BME280_pressure;Samples;Min_cycle;Max_cycle;Signal;HPM_P1;HPM_P2
2021/06/25 00:00:10;;;;;;;2.53;2.40;;;25.70;46.60;;;;;;5118629;27;20489;-71
2021/06/25 00:02:38;;;;;;;1.97;1.87;;;25.70;46.80;;;;;;5119636;27;20497;-71
2021/06/25 00:05:10;;;;;;;2.43;2.27;;;25.70;46.70;;;;;;5115309;27;20411;-71
2021/06/25 00:07:38;;;;;;;3.50;2.20;;;25.70;46.70;;;;;;5115923;27;20493;-71
2021/06/25 00:10:10;;;;;;;1.90;1.80;;;25.70;46.80;;;;;;5112117;27;20466;-71
2021/06/25 00:12:40;;;;;;;5.43;2.37;;;25.60;46.70;;;;;;5113513;27;20490;-71
2021/06/25 00:15:09;;;;;;;3.63;2.30;;;25.60;46.70;;;;;;5113193;27;20402;-70
2021/06/25 00:17:37;;;;;;;1.67;1.63;;;25.60;46.60;;;;;;5118491;27;20402;-71
2021/06/25 00:20:14;;;;;;;2.10;2.00;;;25.60;46.70;;;;;;5124446;27;20401;-71
2021/06/25 00:22:42;;;;;;;1.97;1.87;;;25.50;46.80;;;;;;5114099;27;20428;-70
2021/06/25 00:25:10;;;;;;;2.30;2.20;;;25.50;46.80;;;;;;5114836;27;20462;-70
2021/06/25 00:27:40;;;;;;;2.47;1.90;;;25.50;46.80;;;;;;5113347;27;20555;-70
2021/06/25 00:30:09;;;;;;;4.20;2.07;;;25.60;46.80;;;;;;5109818;27;20409;-70
2021/06/25 00:32:37;;;;;;;3.53;1.93;;;25.50;46.80;;;;;;5115851;27;20444;-70
2021/06/25 00:35:06;;;;;;;2.27;1.90;;;25.50;46.80;;;;;;5113446;27;20453;-70
2021/06/25 00:37:34;;;;;;;4.03;2.10;;;25.50;46.80;;;;;;5119282;27;20514;-71
2021/06/25 00:40:03;;;;;;;5.47;1.83;;;25.50;46.90;;;;;;5120937;27;20444;-70
2021/06/25 00:42:31;;;;;;;2.30;2.10;;;25.50;46.90;;;;;;5115800;27;20525;-70
2021/06/25 00:45:01;;;;;;;2.40;2.13;;;25.50;47.00;;;;;;5103762;28;20417;-71
2021/06/25 00:47:29;;;;;;;2.47;2.23;;;25.50;47.00;;;;;;5107063;27;20530;-70
2021/06/25 00:49:57;;;;;;;2.10;2.00;;;25.40;47.00;;;;;;5112240;27;20398;-70
2021/06/25 00:52:25;;;;;;;3.07;2.27;;;25.50;47.10;;;;;;5110429;27;20517;-70
2021/06/25 00:54:56;;;;;;;2.70;2.00;;;25.40;47.00;;;;;;5113135;27;20502;-71
2021/06/25 00:57:24;;;;;;;4.00;2.20;;;25.50;47.10;;;;;;5111170;27;20447;-70
2021/06/25 00:59:52;;;;;;;2.23;2.13;;;25.40;47.00;;;;;;5123740;27;20494;-70
2021/06/25 01:02:21;;;;;;;6.67;1.90;;;25.50;47.10;;;;;;5120361;27;20526;-71
2021/06/25 01:04:53;;;;;;;2.67;1.80;;;25.40;47.00;;;;;;5123283;27;20787;-71
2021/06/25 01:07:21;;;;;;;2.60;2.20;;;25.40;47.10;;;;;;5121062;27;20590;-70
2021/06/25 01:09:48;;;;;;;1.97;1.77;;;25.40;47.10;;;;;;5125675;27;20501;-71
2021/06/25 01:12:16;;;;;;;2.90;2.17;;;25.40;47.10;;;;;;5125388;27;20442;-70
2021/06/25 01:14:44;;;;;;;3.47;2.30;;;25.40;47.00;;;;;;5136676;27;20453;-70
2021/06/25 01:20:12;;;;;;;2.23;2.13;;;25.40;47.10;;;;;;5080422;27;20551;-70
2021/06/25 01:22:42;;;;;;;2.00;1.90;;;25.40;47.10;;;;;;5080833;28;20435;-70
2021/06/25 01:25:16;;;;;;;2.10;2.00;;;25.40;47.20;;;;;;5080849;28;20439;-70
2021/06/25 01:27:44;;;;;;;2.30;1.90;;;25.40;47.10;;;;;;5080639;28;20488;-70
2021/06/25 01:30:14;;;;;;;3.13;2.00;;;25.40;47.20;;;;;;5080670;28;20441;-70
2021/06/25 01:32:42;;;;;;;2.17;1.80;;;25.40;47.30;;;;;;5076520;28;20487;-70
2021/06/25 01:35:10;;;;;;;3.80;1.80;;;25.40;47.20;;;;;;5060076;28;20433;-70
2021/06/25 01:37:39;;;;;;;2.50;1.93;;;25.40;47.30;;;;;;5059873;28;20404;-70
2021/06/25 01:40:09;;;;;;;2.10;2.00;;;25.40;47.20;;;;;;5060422;28;20483;-70
2021/06/25 01:42:38;;;;;;;2.23;2.13;;;25.40;47.30;;;;;;5060081;28;20476;-70
2021/06/25 01:45:07;;;;;;;3.47;1.80;;;25.40;47.30;;;;;;5060254;28;20412;-70
2021/06/25 01:47:36;;;;;;;2.23;2.00;;;25.40;47.30;;;;;;5059926;28;20429;-70
2021/06/25 01:50:05;;;;;;;2.17;1.97;;;25.30;47.30;;;;;;5060009;28;20473;-70
2021/06/25 01:52:33;;;;;;;2.40;2.20;;;25.30;47.40;;;;;;5065524;28;20437;-70
2021/06/25 01:55:01;;;;;;;2.13;2.00;;;25.30;47.40;;;;;;5079700;28;20460;-70
2021/06/25 01:57:32;;;;;;;2.87;2.33;;;25.30;47.30;;;;;;5075150;28;20524;-70
2021/06/25 02:00:00;;;;;;;2.50;2.40;;;25.30;47.30;;;;;;5079598;28;20561;-70
2021/06/25 02:02:28;;;;;;;1.97;1.87;;;25.30;47.40;;;;;;5079552;28;20451;-70
2021/06/25 02:04:56;;;;;;;1.90;1.80;;;25.30;47.40;;;;;;5079783;28;20445;-70
2021/06/25 02:07:24;;;;;;;3.33;2.00;;;25.30;47.50;;;;;;5078932;28;20436;-70
2021/06/25 02:09:53;;;;;;;2.03;1.93;;;25.30;47.50;;;;;;5079948;28;20437;-70
2021/06/25 02:12:20;;;;;;;2.20;2.10;;;25.30;47.40;;;;;;5080207;28;20452;-70
2021/06/25 02:14:50;;;;;;;1.90;1.80;;;25.30;47.40;;;;;;5080011;28;20447;-70
2021/06/25 02:17:17;;;;;;;4.70;1.97;;;25.30;47.40;;;;;;5079899;28;20478;-70
2021/06/25 02:19:45;;;;;;;2.17;1.97;;;25.20;47.40;;;;;;5079551;28;20538;-70
2021/06/25 02:22:13;;;;;;;2.80;2.30;;;25.20;47.40;;;;;;5071390;28;20417;-70
2021/06/25 02:24:41;;;;;;;2.20;2.10;;;25.20;47.40;;;;;;5059774;28;20459;-70
2021/06/25 02:27:09;;;;;;;2.07;1.97;;;25.20;47.50;;;;;;5072949;28;20423;-70
2021/06/25 02:29:37;;;;;;;4.40;2.03;;;25.20;47.40;;;;;;5075195;28;20484;-70
2021/06/25 02:32:07;;;;;;;2.03;1.90;;;25.20;47.60;;;;;;5065367;28;20423;-70
2021/06/25 02:34:35;;;;;;;2.30;2.20;;;25.20;47.50;;;;;;5065752;28;20435;-70
2021/06/25 02:37:03;;;;;;;1.77;1.67;;;25.20;47.60;;;;;;5064176;28;20446;-70
2021/06/25 02:39:31;;;;;;;1.83;1.73;;;25.20;47.50;;;;;;5063620;28;20428;-70
2021/06/25 02:41:59;;;;;;;2.00;1.73;;;25.20;47.50;;;;;;5064778;28;20455;-70
2021/06/25 02:44:27;;;;;;;2.20;2.00;;;25.20;47.50;;;;;;5064975;28;20473;-70
2021/06/25 02:46:55;;;;;;;2.13;2.03;;;25.20;47.50;;;;;;5065079;28;20425;-70
2021/06/25 02:49:25;;;;;;;2.10;2.00;;;25.20;47.40;;;;;;5065912;28;20412;-71
2021/06/25 02:51:53;;;;;;;2.30;2.20;;;25.20;47.50;;;;;;5064537;28;20434;-70
2021/06/25 02:54:21;;;;;;;5.50;2.20;;;25.20;47.60;;;;;;5065691;28;20448;-70
2021/06/25 02:56:50;;;;;;;8.33;2.30;;;25.20;47.60;;;;;;5065727;28;20577;-70
2021/06/25 02:59:17;;;;;;;2.23;2.13;;;25.20;47.60;;;;;;5060272;28;20557;-70
2021/06/25 03:01:45;;;;;;;2.00;1.90;;;25.10;47.60;;;;;;5045177;28;20534;-70
2021/06/25 03:04:13;;;;;;;4.53;2.20;;;25.10;47.60;;;;;;5045590;28;20431;-70
2021/06/25 03:06:44;;;;;;;2.07;1.97;;;25.10;47.60;;;;;;5045623;28;20481;-71
2021/06/25 03:09:12;;;;;;;1.83;1.73;;;25.20;47.60;;;;;;5045492;28;20458;-70
2021/06/25 03:11:40;;;;;;;3.07;1.90;;;25.10;47.60;;;;;;5045196;28;20438;-70
2021/06/25 03:14:08;;;;;;;4.30;2.20;;;25.10;47.60;;;;;;5045378;28;20500;-70
2021/06/25 03:16:36;;;;;;;3.00;2.00;;;25.10;47.70;;;;;;5044797;28;20464;-70
2021/06/25 03:19:04;;;;;;;2.37;2.17;;;25.10;47.70;;;;;;5044295;28;20502;-71
2021/06/25 03:21:32;;;;;;;2.80;1.93;;;25.10;47.60;;;;;;5044967;28;20533;-71
2021/06/25 03:24:01;;;;;;;2.10;2.00;;;25.10;47.60;;;;;;5044675;28;20522;-71
2021/06/25 03:26:29;;;;;;;2.07;1.97;;;25.00;47.70;;;;;;5044966;28;20527;-71
2021/06/25 03:28:57;;;;;;;2.17;2.07;;;25.00;47.70;;;;;;5045042;28;20485;-71
2021/06/25 03:31:24;;;;;;;2.20;2.10;;;25.00;47.70;;;;;;5044845;28;20529;-71
2021/06/25 03:33:52;;;;;;;1.87;1.77;;;25.00;47.70;;;;;;5059536;28;20431;-71
2021/06/25 03:36:20;;;;;;;2.07;1.97;;;25.00;47.70;;;;;;5064783;28;20461;-71
2021/06/25 03:38:48;;;;;;;1.97;1.73;;;25.00;47.70;;;;;;5064563;28;20480;-71
2021/06/25 03:41:17;;;;;;;2.20;2.07;;;25.00;47.70;;;;;;5063830;28;20547;-71
2021/06/25 03:43:45;;;;;;;2.43;2.27;;;25.00;47.60;;;;;;5064833;28;20442;-71
2021/06/25 03:46:13;;;;;;;1.93;1.83;;;25.00;47.70;;;;;;5064708;28;20417;-71
2021/06/25 03:48:41;;;;;;;2.07;1.97;;;25.00;47.70;;;;;;5064920;28;20441;-71
2021/06/25 03:51:09;;;;;;;2.00;1.90;;;25.00;47.70;;;;;;5045226;28;20414;-71
2021/06/25 03:53:37;;;;;;;1.90;1.80;;;25.00;47.80;;;;;;5044407;28;20500;-71
2021/06/25 03:56:11;;;;;;;2.20;2.10;;;25.00;47.80;;;;;;5044512;28;20492;-71
2021/06/25 03:58:41;;;;;;;2.27;2.17;;;25.00;47.80;;;;;;5044361;28;20413;-71
2021/06/25 04:01:11;;;;;;;2.37;2.07;;;25.00;47.80;;;;;;5048197;28;20452;-70
2021/06/25 04:03:39;;;;;;;2.00;1.90;;;25.00;47.90;;;;;;5059275;28;20409;-70
2021/06/25 04:06:07;;;;;;;2.70;2.07;;;25.00;47.80;;;;;;5063764;28;20538;-70
2021/06/25 04:08:35;;;;;;;2.10;1.90;;;25.00;47.80;;;;;;5063253;28;20509;-70
2021/06/25 04:11:04;;;;;;;2.17;2.07;;;24.90;47.80;;;;;;5064024;28;20437;-70
2021/06/25 04:13:32;;;;;;;2.03;1.93;;;25.00;47.80;;;;;;5064143;28;20424;-70
2021/06/25 04:16:02;;;;;;;1.50;1.50;;;25.00;47.80;;;;;;5063482;28;20548;-70
2021/06/25 04:18:30;;;;;;;2.10;1.90;;;25.00;47.90;;;;;;5063797;28;20477;-70
2021/06/25 04:20:58;;;;;;;2.10;1.93;;;25.00;47.80;;;;;;5063679;28;20517;-70
2021/06/25 04:23:26;;;;;;;2.20;2.10;;;25.00;47.70;;;;;;5043688;28;20470;-70
2021/06/25 04:25:54;;;;;;;2.30;2.10;;;25.00;47.80;;;;;;5043825;28;20514;-70
2021/06/25 04:28:22;;;;;;;2.40;2.30;;;25.00;47.80;;;;;;5043531;28;20471;-70
2021/06/25 04:30:50;;;;;;;4.00;2.00;;;25.00;47.80;;;;;;5044022;28;20417;-70
2021/06/25 04:33:20;;;;;;;2.00;1.90;;;24.90;47.80;;;;;;5043958;28;20421;-70
2021/06/25 04:35:49;;;;;;;2.03;1.93;;;25.00;47.80;;;;;;5043631;28;20471;-70
2021/06/25 04:38:17;;;;;;;2.10;2.00;;;25.00;47.80;;;;;;5043972;28;20521;-71
2021/06/25 04:40:44;;;;;;;2.13;1.97;;;25.00;47.80;;;;;;5043614;28;20444;-70
2021/06/25 04:43:14;;;;;;;2.90;2.30;;;25.00;47.80;;;;;;5043375;28;20425;-70
2021/06/25 04:45:42;;;;;;;2.30;2.20;;;25.00;47.60;;;;;;5043888;28;20533;-70
2021/06/25 04:48:11;;;;;;;1.70;1.70;;;24.90;47.80;;;;;;5043660;28;20437;-70
2021/06/25 04:50:41;;;;;;;2.10;2.00;;;25.00;47.80;;;;;;5043162;28;20409;-71
2021/06/25 04:53:08;;;;;;;2.30;2.20;;;25.00;47.70;;;;;;5042994;28;20423;-70
2021/06/25 04:55:42;;;;;;;2.33;2.23;;;25.00;47.80;;;;;;5042725;28;20429;-70
2021/06/25 04:58:10;;;;;;;2.27;1.93;;;25.00;47.80;;;;;;5043288;28;20516;-71
2021/06/25 05:00:38;;;;;;;2.00;1.90;;;25.00;47.70;;;;;;5043364;28;20529;-71
2021/06/25 05:03:07;;;;;;;2.20;2.10;;;25.00;47.70;;;;;;5043314;28;20420;-70
2021/06/25 05:05:35;;;;;;;2.10;1.73;;;25.00;47.70;;;;;;5043197;28;20512;-71
2021/06/25 05:08:07;;;;;;;1.90;1.77;;;25.00;47.70;;;;;;5043163;28;20448;-70
2021/06/25 05:10:35;;;;;;;1.73;1.70;;;25.00;47.70;;;;;;5043222;28;20525;-70
2021/06/25 05:13:03;;;;;;;2.27;2.07;;;25.00;47.70;;;;;;5042882;28;20454;-70
2021/06/25 05:15:31;;;;;;;1.80;1.70;;;25.00;47.60;;;;;;5043235;28;20444;-70
2021/06/25 05:18:11;;;;;;;2.20;2.00;;;25.00;47.70;;;;;;5043364;28;20458;-70
2021/06/25 05:20:58;;;;;;;1.90;1.80;;;25.00;47.60;;;;;;5042623;28;20437;-70
2021/06/25 05:23:27;;;;;;;1.97;1.87;;;25.00;47.60;;;;;;5042962;28;20484;-70
2021/06/25 05:25:56;;;;;;;2.10;2.00;;;25.10;47.70;;;;;;5043067;28;20456;-70
2021/06/25 05:28:24;;;;;;;1.87;1.70;;;25.00;47.60;;;;;;5043182;28;20500;-70
2021/06/25 05:30:52;;;;;;;2.27;2.17;;;25.10;47.80;;;;;;5042449;28;20433;-70
2021/06/25 05:33:20;;;;;;;1.93;1.83;;;25.10;47.70;;;;;;5042628;28;20443;-70
2021/06/25 05:35:48;;;;;;;2.17;2.07;;;25.10;47.60;;;;;;5042737;28;20525;-70
2021/06/25 05:38:17;;;;;;;1.83;1.80;;;25.10;47.60;;;;;;5042581;28;20409;-70
2021/06/25 05:40:47;;;;;;;1.77;1.70;;;25.00;47.60;;;;;;5042615;28;20462;-70
2021/06/25 05:43:15;;;;;;;2.33;2.20;;;25.10;47.60;;;;;;5042644;28;20487;-70
2021/06/25 05:45:42;;;;;;;2.93;2.10;;;25.10;47.60;;;;;;5042681;28;20500;-70
2021/06/25 05:48:10;;;;;;;1.80;1.70;;;25.10;47.60;;;;;;5042348;28;20441;-70
2021/06/25 05:50:38;;;;;;;2.37;2.27;;;25.10;47.60;;;;;;5042863;28;20455;-70
2021/06/25 05:53:06;;;;;;;1.90;1.80;;;25.10;47.60;;;;;;5042171;28;20516;-70
2021/06/25 05:55:34;;;;;;;2.10;2.00;;;25.20;47.50;;;;;;5042707;28;20421;-70
2021/06/25 05:58:04;;;;;;;2.00;1.90;;;25.20;47.60;;;;;;5042672;28;20423;-70
2021/06/25 06:00:31;;;;;;;2.00;1.90;;;25.10;47.50;;;;;;5042473;28;20445;-70
2021/06/25 06:03:02;;;;;;;3.50;2.13;;;25.20;47.50;;;;;;5042210;28;20469;-70
2021/06/25 06:05:34;;;;;;;2.00;1.80;;;25.20;47.60;;;;;;5044097;28;20450;-70
2021/06/25 06:08:02;;;;;;;2.30;2.20;;;25.20;47.50;;;;;;5046300;28;20423;-70
2021/06/25 06:10:30;;;;;;;2.00;1.90;;;25.20;47.50;;;;;;5045975;28;20461;-71
2021/06/25 06:12:59;;;;;;;1.83;1.67;;;25.20;47.50;;;;;;5046617;28;20510;-70
2021/06/25 06:15:29;;;;;;;1.97;1.87;;;25.20;47.50;;;;;;5053692;28;20450;-70
2021/06/25 06:17:59;;;;;;;4.50;2.10;;;25.20;47.40;;;;;;5065731;28;20476;-70
2021/06/25 06:20:27;;;;;;;1.60;1.60;;;25.30;47.40;;;;;;5065875;28;20491;-70
2021/06/25 06:31:20;;;;;;;2.17;2.07;;;25.30;47.20;;;;;;5063326;28;20523;-70
2021/06/25 06:33:49;;;;;;;2.20;2.10;;;25.30;47.20;;;;;;5061206;28;20569;-71
2021/06/25 06:36:22;;;;;;;2.10;2.00;;;25.40;47.30;;;;;;5065416;28;20479;-70
2021/06/25 06:38:55;;;;;;;2.10;2.00;;;25.40;47.10;;;;;;5065985;28;20465;-71
2021/06/25 06:41:23;;;;;;;1.97;1.87;;;25.50;47.10;;;;;;5064038;28;20628;-70
2021/06/25 06:43:51;;;;;;;1.90;1.80;;;25.50;47.10;;;;;;5063549;28;20456;-70
2021/06/25 06:46:20;;;;;;;2.37;2.13;;;25.50;47.00;;;;;;5064895;28;20472;-70
2021/06/25 06:48:48;;;;;;;2.30;2.20;;;25.60;47.00;;;;;;5065721;28;20476;-72
2021/06/25 06:51:18;;;;;;;1.90;1.80;;;25.60;47.00;;;;;;5072017;28;20420;-72
2021/06/25 06:53:46;;;;;;;1.77;1.67;;;25.60;47.00;;;;;;5081655;28;20441;-72
2021/06/25 06:56:15;;;;;;;4.63;1.90;;;25.60;47.10;;;;;;5059810;28;20516;-74
2021/06/25 06:58:43;;;;;;;10.63;2.50;;;25.60;47.10;;;;;;5066183;28;20436;-72
2021/06/25 07:01:11;;;;;;;7.70;2.60;;;25.60;47.10;;;;;;5079185;28;20560;-72
2021/06/25 07:04:00;;;;;;;7.00;2.50;;;25.70;47.70;;;;;;5053378;28;20412;-72
2021/06/25 07:06:29;;;;;;;7.77;2.30;;;25.80;48.40;;;;;;5069626;28;20450;-72
2021/06/25 07:08:57;;;;;;;16.13;2.63;;;25.80;48.70;;;;;;5085851;28;20440;-72
2021/06/25 07:11:25;;;;;;;7.77;3.10;;;25.90;48.80;;;;;;5085618;28;20435;-73
2021/06/25 07:13:56;;;;;;;17.87;2.90;;;25.90;48.90;;;;;;5048128;28;20446;-73
2021/06/25 07:16:23;;;;;;;14.53;2.40;;;25.90;48.80;;;;;;5045415;28;20484;-73
2021/06/25 07:18:51;;;;;;;2.90;2.20;;;25.90;48.80;;;;;;5045415;28;20458;-73
2021/06/25 07:21:21;;;;;;;3.70;2.70;;;26.00;48.80;;;;;;5045219;28;20520;-72
2021/06/25 07:23:49;;;;;;;4.43;2.20;;;26.10;48.70;;;;;;5057360;28;20431;-73
2021/06/25 07:26:17;;;;;;;5.13;2.50;;;26.10;48.40;;;;;;5085398;28;20460;-73
2021/06/25 07:28:45;;;;;;;7.10;2.37;;;26.20;48.50;;;;;;5085531;28;20539;-72
2021/06/25 07:31:14;;;;;;;4.93;2.60;;;26.20;48.30;;;;;;5056468;28;20450;-73
2021/06/25 07:33:44;;;;;;;3.00;2.00;;;26.30;48.20;;;;;;5045431;28;20460;-74
2021/06/25 07:36:13;;;;;;;8.43;2.20;;;26.40;48.20;;;;;;5045412;28;20482;-73
2021/06/25 07:38:45;;;;;;;4.20;2.37;;;26.40;48.00;;;;;;5045803;28;20431;-73
2021/06/25 07:41:13;;;;;;;8.90;2.77;;;26.50;47.70;;;;;;5044954;28;20446;-73
2021/06/25 07:43:41;;;;;;;4.83;2.90;;;26.50;47.90;;;;;;5045744;28;20451;-73
2021/06/25 07:46:08;;;;;;;3.40;2.70;;;26.60;47.90;;;;;;5045321;28;20449;-74
2021/06/25 07:48:36;;;;;;;7.80;2.60;;;26.60;48.00;;;;;;5045455;28;20471;-73
2021/06/25 07:51:05;;;;;;;5.57;2.83;;;26.60;47.50;;;;;;5045070;28;20474;-73
2021/06/25 07:53:36;;;;;;;6.73;2.67;;;26.60;47.50;;;;;;5045006;28;20460;-74
2021/06/25 07:56:05;;;;;;;3.27;2.53;;;26.60;47.60;;;;;;5045085;28;20447;-72
2021/06/25 07:58:33;;;;;;;4.93;2.43;;;26.60;47.60;;;;;;5067047;28;20419;-73
2021/06/25 08:01:01;;;;;;;4.60;2.30;;;26.60;47.60;;;;;;5084774;28;20490;-74
2021/06/25 08:03:30;;;;;;;8.63;2.50;;;26.60;47.80;;;;;;5084555;28;20509;-74
2021/06/25 08:05:58;;;;;;;9.40;2.30;;;26.80;47.70;;;;;;5084965;28;20440;-73
2021/06/25 08:08:26;;;;;;;4.80;2.80;;;26.90;47.40;;;;;;5085407;28;20403;-73
2021/06/25 08:10:54;;;;;;;4.07;2.50;;;27.00;46.80;;;;;;5085144;28;20437;-73
2021/06/25 08:13:23;;;;;;;4.87;2.73;;;27.00;47.10;;;;;;5084520;28;20466;-73
2021/06/25 08:15:51;;;;;;;3.93;3.07;;;27.10;47.10;;;;;;5085123;28;20468;-73
2021/06/25 08:18:23;;;;;;;6.50;3.20;;;27.20;46.60;;;;;;5084856;28;20495;-73
2021/06/25 08:20:51;;;;;;;6.03;2.87;;;27.30;46.40;;;;;;5084980;28;20516;-73
2021/06/25 08:23:20;;;;;;;2.83;2.73;;;27.20;46.30;;;;;;5084834;28;20571;-73
2021/06/25 08:25:48;;;;;;;3.87;2.77;;;27.30;46.40;;;;;;5085292;28;20425;-73
2021/06/25 08:28:16;;;;;;;6.53;3.00;;;27.30;46.30;;;;;;5063358;28;20449;-73
2021/06/25 08:30:45;;;;;;;3.37;2.50;;;27.20;46.30;;;;;;5044632;28;20431;-73
2021/06/25 08:33:13;;;;;;;3.87;2.90;;;27.30;46.40;;;;;;5044565;28;20480;-73
2021/06/25 08:35:41;;;;;;;4.27;3.90;;;27.40;46.50;;;;;;5044347;28;20439;-73
2021/06/25 08:38:10;;;;;;;4.53;4.23;;;27.40;46.50;;;;;;5044637;28;20510;-73
2021/06/25 08:40:38;;;;;;;5.57;3.70;;;27.50;46.40;;;;;;5044395;28;20533;-73
2021/06/25 08:43:06;;;;;;;5.10;4.20;;;27.60;46.20;;;;;;5044295;28;20448;-73
2021/06/25 08:45:34;;;;;;;4.73;3.97;;;27.70;46.20;;;;;;5044119;28;20516;-74
2021/06/25 08:48:05;;;;;;;8.20;3.97;;;27.80;46.00;;;;;;5044013;28;20424;-73
2021/06/25 08:50:36;;;;;;;6.70;4.20;;;27.80;45.90;;;;;;5044633;28;20451;-74
2021/06/25 08:53:04;;;;;;;4.57;4.13;;;27.90;45.80;;;;;;5043920;28;20431;-74
2021/06/25 08:55:32;;;;;;;3.93;3.63;;;27.90;45.50;;;;;;5044904;28;20454;-74
2021/06/25 08:58:01;;;;;;;5.47;4.00;;;28.00;45.40;;;;;;5057363;28;20467;-73
2021/06/25 09:00:29;;;;;;;6.13;4.50;;;28.00;45.20;;;;;;5083993;28;20540;-73
2021/06/25 09:02:57;;;;;;;3.47;3.17;;;28.10;45.30;;;;;;5060524;28;20448;-72
2021/06/25 09:05:28;;;;;;;4.83;3.33;;;28.20;45.20;;;;;;5061883;28;20430;-72
2021/06/25 09:07:57;;;;;;;3.50;3.20;;;28.20;45.00;;;;;;5063780;28;20393;-72
2021/06/25 09:10:30;;;;;;;3.10;3.00;;;28.20;44.80;;;;;;5060973;28;20418;-72
2021/06/25 09:13:02;;;;;;;6.30;2.97;;;28.10;44.60;;;;;;5063897;28;20533;-72
2021/06/25 09:15:30;;;;;;;3.37;3.10;;;28.10;44.70;;;;;;5061482;28;20495;-72
2021/06/25 09:17:59;;;;;;;3.87;3.53;;;28.10;44.90;;;;;;5063472;28;20433;-73
2021/06/25 09:20:34;;;;;;;4.30;3.03;;;28.30;45.10;;;;;;5063233;28;21196;-72
2021/06/25 09:23:05;;;;;;;3.43;3.07;;;28.30;44.80;;;;;;5063084;28;20469;-73
2021/06/25 09:25:56;;;;;;;3.83;3.30;;;28.40;44.80;;;;;;5064222;28;20449;-72
2021/06/25 09:28:28;;;;;;;3.33;3.13;;;28.40;44.80;;;;;;5057405;28;20433;-72
2021/06/25 09:30:55;;;;;;;2.93;2.70;;;28.50;44.60;;;;;;5063526;28;20422;-72
2021/06/25 09:33:23;;;;;;;7.53;3.30;;;28.60;44.50;;;;;;5063499;28;20529;-72
2021/06/25 09:35:54;;;;;;;3.37;3.17;;;28.60;44.30;;;;;;5061662;28;20437;-72
2021/06/25 09:38:32;;;;;;;4.83;2.90;;;28.70;44.30;;;;;;5064083;28;20533;-73
2021/06/25 09:41:00;;;;;;;3.23;2.93;;;28.80;44.40;;;;;;5063790;28;20461;-76
2021/06/25 09:43:32;;;;;;;4.83;3.27;;;28.80;44.00;;;;;;5067126;28;20501;-74
2021/06/25 09:46:03;;;;;;;2.73;2.63;;;28.90;44.00;;;;;;5064929;28;20404;-73
2021/06/25 09:48:53;;;;;;;2.90;2.70;;;28.90;43.80;;;;;;5067059;28;20427;-73
2021/06/25 09:51:22;;;;;;;4.30;3.10;;;29.00;43.80;;;;;;5063415;28;20441;-73
2021/06/25 09:54:09;;;;;;;3.50;3.23;;;29.10;44.00;;;;;;5066952;28;20448;-73
2021/06/25 09:56:40;;;;;;;4.30;3.00;;;29.10;43.60;;;;;;5067205;28;20436;-73
2021/06/25 09:59:34;;;;;;;3.10;2.90;;;29.20;43.60;;;;;;5069188;28;20410;-73
2021/06/25 10:02:26;;;;;;;2.90;2.70;;;29.30;43.40;;;;;;5065295;28;20417;-73
2021/06/25 10:04:54;;;;;;;2.67;2.47;;;29.30;43.10;;;;;;5063545;28;20528;-73
2021/06/25 10:07:25;;;;;;;3.03;2.70;;;29.30;43.10;;;;;;5067003;28;20464;-73
2021/06/25 10:09:54;;;;;;;2.63;2.53;;;29.20;43.30;;;;;;5066805;28;20521;-73
2021/06/25 10:12:22;;;;;;;3.33;3.13;;;29.30;43.40;;;;;;5066547;28;20545;-73
2021/06/25 10:14:54;;;;;;;4.20;3.40;;;29.20;43.20;;;;;;5067016;28;20438;-73
2021/06/25 10:17:25;;;;;;;2.50;2.40;;;29.20;43.40;;;;;;5066995;28;20422;-73
2021/06/25 10:19:54;;;;;;;2.70;2.50;;;29.30;43.30;;;;;;5066602;28;20525;-73
2021/06/25 10:22:25;;;;;;;4.00;3.80;;;29.40;43.30;;;;;;5066361;28;20437;-73
2021/06/25 10:24:53;;;;;;;3.47;2.87;;;29.50;43.00;;;;;;5066090;28;20516;-73
2021/06/25 10:27:23;;;;;;;3.33;3.10;;;29.60;42.90;;;;;;5061330;28;20520;-74
2021/06/25 10:29:51;;;;;;;2.50;2.40;;;29.70;42.90;;;;;;5066463;28;20438;-74
2021/06/25 10:32:19;;;;;;;2.60;2.50;;;29.70;42.60;;;;;;5063682;28;20516;-73
2021/06/25 10:34:48;;;;;;;3.10;2.80;;;29.80;42.50;;;;;;5056641;28;20438;-73
2021/06/25 10:37:20;;;;;;;2.80;2.60;;;29.90;43.10;;;;;;5046798;28;20541;-74
2021/06/25 10:39:50;;;;;;;2.40;2.30;;;29.90;42.30;;;;;;5046392;28;20450;-74
2021/06/25 10:42:17;;;;;;;2.47;2.37;;;30.00;42.20;;;;;;5046309;28;20557;-73
2021/06/25 10:45:02;;;;;;;3.00;2.90;;;30.00;42.10;;;;;;5046336;28;20577;-73
2021/06/25 10:47:31;;;;;;;2.50;2.37;;;30.10;42.00;;;;;;5046933;28;20427;-73
2021/06/25 10:50:32;;;;;;;2.97;2.67;;;30.20;42.00;;;;;;5054822;28;20443;-74
2021/06/25 10:53:12;;;;;;;2.67;2.50;;;30.20;41.80;;;;;;5063512;28;20437;-74
2021/06/25 10:55:48;;;;;;;2.50;2.40;;;30.30;41.80;;;;;;5050979;28;20476;-74
2021/06/25 10:58:20;;;;;;;2.33;2.23;;;30.30;41.80;;;;;;5065136;28;20434;-74
2021/06/25 11:00:55;;;;;;;2.47;2.37;;;30.40;41.60;;;;;;5063453;28;20434;-75
2021/06/25 11:03:41;;;;;;;2.43;2.30;;;30.40;41.60;;;;;;5065466;28;20460;-75
2021/06/25 11:06:25;;;;;;;2.07;2.07;;;30.50;41.40;;;;;;5052478;28;20541;-74
2021/06/25 11:09:03;;;;;;;2.17;2.07;;;30.50;41.40;;;;;;5047736;28;20477;-73
2021/06/25 11:11:35;;;;;;;2.33;2.23;;;30.60;41.30;;;;;;5062821;28;20434;-74
2021/06/25 11:14:03;;;;;;;2.40;2.33;;;30.70;41.20;;;;;;5063600;28;20527;-73
2021/06/25 11:16:31;;;;;;;5.07;2.70;;;30.70;41.00;;;;;;5065811;28;20452;-74
2021/06/25 11:19:01;;;;;;;2.50;2.10;;;30.70;40.80;;;;;;5065016;28;20480;-74
2021/06/25 11:21:43;;;;;;;2.47;2.27;;;30.80;40.90;;;;;;5065676;28;20457;-74
2021/06/25 11:24:11;;;;;;;2.37;2.27;;;30.60;40.80;;;;;;5063668;28;20561;-74
2021/06/25 11:26:53;;;;;;;2.23;2.13;;;30.70;41.70;;;;;;5064866;28;20446;-74
2021/06/25 11:29:24;;;;;;;2.40;2.30;;;31.20;41.10;;;;;;5064339;28;20442;-75
2021/06/25 11:31:52;;;;;;;3.17;2.40;;;31.70;40.30;;;;;;5066144;28;20438;-75
2021/06/25 11:34:30;;;;;;;2.10;2.00;;;31.90;39.10;;;;;;5070496;28;20478;-76
2021/06/25 11:37:00;;;;;;;3.47;2.23;;;31.70;39.20;;;;;;5067463;28;20433;-75
2021/06/25 11:39:32;;;;;;;2.20;2.10;;;31.60;39.40;;;;;;5060847;28;20461;-75
2021/06/25 11:42:03;;;;;;;13.23;2.80;;;32.00;39.50;;;;;;5064460;28;20522;-75
2021/06/25 11:44:33;;;;;;;2.17;2.07;;;32.30;38.90;;;;;;5067522;28;20469;-74
2021/06/25 11:47:03;;;;;;;2.20;1.90;;;32.50;38.50;;;;;;5069369;28;20460;-75
2021/06/25 11:49:37;;;;;;;3.13;2.20;;;32.70;38.10;;;;;;5062581;28;20442;-75
2021/06/25 11:52:06;;;;;;;2.30;2.10;;;32.80;37.90;;;;;;5065917;28;20421;-75
2021/06/25 11:54:36;;;;;;;2.00;1.90;;;32.80;37.70;;;;;;5062093;28;20433;-75
2021/06/25 11:57:06;;;;;;;2.10;2.00;;;32.90;37.60;;;;;;5066647;28;20488;-75
2021/06/25 11:59:34;;;;;;;2.03;1.93;;;33.00;38.10;;;;;;5062781;28;20441;-75
2021/06/25 12:02:03;;;;;;;2.33;2.10;;;33.00;37.40;;;;;;5060846;28;20425;-74
2021/06/25 12:04:38;;;;;;;2.00;1.90;;;33.00;37.40;;;;;;5070693;28;20568;-75
2021/06/25 12:07:07;;;;;;;1.97;1.87;;;33.00;37.20;;;;;;5073086;28;20447;-75
2021/06/25 12:09:43;;;;;;;1.90;1.80;;;33.00;37.20;;;;;;5072105;28;20446;-76
2021/06/25 12:12:19;;;;;;;6.40;2.37;;;33.10;37.30;;;;;;5050867;28;20497;-78
2021/06/25 12:14:49;;;;;;;2.00;1.90;;;33.10;37.30;;;;;;5085166;28;20516;-76
2021/06/25 12:17:17;;;;;;;9.17;2.27;;;33.10;36.80;;;;;;5078021;28;20465;-75
2021/06/25 12:20:05;;;;;;;3.47;2.23;;;33.10;37.20;;;;;;5084628;28;20441;-77
2021/06/25 12:22:47;;;;;;;10.60;2.10;;;33.00;37.10;;;;;;5084356;28;20443;-76
2021/06/25 12:25:15;;;;;;;6.07;2.60;;;33.00;37.30;;;;;;5079461;28;20549;-77
2021/06/25 12:27:44;;;;;;;3.50;2.20;;;33.00;37.30;;;;;;5064729;28;20463;-75
2021/06/25 12:30:14;;;;;;;2.83;2.60;;;32.90;37.30;;;;;;5064704;28;20525;-77
2021/06/25 12:32:42;;;;;;;6.23;2.23;;;32.60;37.00;;;;;;5060551;28;20487;-80
2021/06/25 12:35:11;;;;;;;3.60;2.43;;;32.10;37.80;;;;;;5051516;28;20437;-75
2021/06/25 12:37:47;;;;;;;3.97;2.73;;;32.00;38.80;;;;;;5054231;28;20486;-78
2021/06/25 12:40:30;;;;;;;6.77;3.20;;;31.80;38.70;;;;;;5048821;28;20441;-74
2021/06/25 12:43:03;;;;;;;9.63;3.17;;;31.60;39.30;;;;;;5058343;28;20480;-74
2021/06/25 12:45:38;;;;;;;5.10;3.17;;;31.60;39.60;;;;;;5063169;28;20612;-74
2021/06/25 12:48:10;;;;;;;10.97;2.83;;;31.70;39.40;;;;;;5060218;28;20494;-75
2021/06/25 12:50:41;;;;;;;5.10;3.30;;;31.60;39.10;;;;;;5063806;28;20453;-75
2021/06/25 12:53:17;;;;;;;4.20;2.90;;;31.40;39.60;;;;;;5063116;28;20425;-75
2021/06/25 12:55:45;;;;;;;5.43;2.83;;;31.40;40.00;;;;;;5063200;28;20483;-75
2021/06/25 12:58:16;;;;;;;3.03;2.40;;;31.50;39.90;;;;;;5063927;28;20445;-74
2021/06/25 13:00:47;;;;;;;14.50;3.10;;;31.60;39.70;;;;;;5064450;28;20530;-75
2021/06/25 13:03:19;;;;;;;5.17;2.53;;;31.60;39.70;;;;;;5063436;28;20441;-74
2021/06/25 13:05:49;;;;;;;8.60;2.93;;;31.50;39.70;;;;;;5063994;28;20505;-74
2021/06/25 13:08:22;;;;;;;4.67;2.63;;;31.30;39.90;;;;;;5064243;28;20437;-74
2021/06/25 13:10:55;;;;;;;5.03;2.60;;;31.10;40.20;;;;;;5064183;28;20441;-74